N8358U KLAX-CYVR
Flight info
| Callsign | N8358U |
|---|---|
| Flight time | 2h 18m |
| Altitude | 28000 |
| Route | SUMMR2 SCTRR SNS J126 SAC LMT J65 SEA PAE GRIZZ9 |
| Aircraft | C700/M-SBDFGLZ/G |
Departure
| Time | 2026-05-07 16:07 |
|---|---|
| Airport | Los Angeles International Airport (KLAX) |
Arrival
| Time | 2026-05-07 18:25 |
|---|---|
| Airport | Vancouver International Airport (CYVR) |
| Time | Latitude | Longitude | Altitude | Speed | Heading |
|---|---|---|---|---|---|
| 2026-05-07 15:51 | 33.93376 | -118.39915 | 110 ft | 0 kts | 23° |
| 2026-05-07 16:02 | 33.93384 | -118.39911 | 119 ft | 5 kts | 23° |
| 2026-05-07 16:02 | 33.93442 | -118.39857 | 119 ft | 15 kts | 53° |
| 2026-05-07 16:03 | 33.93465 | -118.39728 | 117 ft | 17 kts | 84° |
| 2026-05-07 16:03 | 33.93476 | -118.39584 | 120 ft | 18 kts | 83° |
| 2026-05-07 16:03 | 33.93494 | -118.39434 | 118 ft | 19 kts | 82° |
| 2026-05-07 16:03 | 33.93511 | -118.39272 | 118 ft | 20 kts | 83° |
| 2026-05-07 16:04 | 33.93528 | -118.39101 | 120 ft | 21 kts | 83° |
| 2026-05-07 16:04 | 33.93546 | -118.38922 | 120 ft | 22 kts | 83° |
| 2026-05-07 16:04 | 33.93566 | -118.38734 | 117 ft | 23 kts | 83° |
| 2026-05-07 16:04 | 33.93585 | -118.38544 | 120 ft | 24 kts | 83° |
| 2026-05-07 16:05 | 33.93604 | -118.38354 | 120 ft | 16 kts | 83° |
| 2026-05-07 16:05 | 33.93642 | -118.38283 | 120 ft | 0 kts | 21° |
| 2026-05-07 16:06 | 33.93682 | -118.38279 | 119 ft | 15 kts | 355° |
| 2026-05-07 16:06 | 33.93730 | -118.38343 | 120 ft | 10 kts | 259° |
| 2026-05-07 16:06 | 33.93701 | -118.38635 | 120 ft | 73 kts | 263° |
| 2026-05-07 16:06 | 33.93608 | -118.39548 | 118 ft | 143 kts | 263° |
| 2026-05-07 16:07 | 33.93468 | -118.40931 | 488 ft | 183 kts | 263° |
| 2026-05-07 16:07 | 33.93335 | -118.42542 | 1455 ft | 197 kts | 263° |
| 2026-05-07 16:07 | 33.93138 | -118.44189 | 2516 ft | 204 kts | 262° |
| 2026-05-07 16:07 | 33.92955 | -118.45946 | 3399 ft | 223 kts | 267° |
| 2026-05-07 16:08 | 33.92895 | -118.47921 | 4087 ft | 245 kts | 269° |
| 2026-05-07 16:08 | 33.92850 | -118.50045 | 4192 ft | 263 kts | 268° |
| 2026-05-07 16:08 | 33.92681 | -118.52244 | 4233 ft | 263 kts | 264° |
| 2026-05-07 16:08 | 33.92470 | -118.54423 | 4256 ft | 262 kts | 264° |
| 2026-05-07 16:09 | 33.92274 | -118.56601 | 4308 ft | 260 kts | 265° |
| 2026-05-07 16:09 | 33.92109 | -118.58756 | 4926 ft | 271 kts | 265° |
| 2026-05-07 16:09 | 33.91930 | -118.61097 | 6067 ft | 278 kts | 265° |
| 2026-05-07 16:09 | 33.91754 | -118.63394 | 7635 ft | 278 kts | 268° |
| 2026-05-07 16:10 | 33.91771 | -118.65768 | 8859 ft | 287 kts | 272° |
| 2026-05-07 16:10 | 33.91809 | -118.68206 | 10130 ft | 294 kts | 271° |
| 2026-05-07 16:10 | 33.91780 | -118.70777 | 10953 ft | 321 kts | 270° |
| 2026-05-07 16:10 | 33.91721 | -118.73499 | 12127 ft | 327 kts | 270° |
| 2026-05-07 16:11 | 33.91698 | -118.76265 | 13247 ft | 334 kts | 272° |
| 2026-05-07 16:11 | 33.91716 | -118.79086 | 14313 ft | 339 kts | 272° |
| 2026-05-07 16:11 | 33.91726 | -118.81943 | 15283 ft | 345 kts | 272° |
| 2026-05-07 16:11 | 33.91742 | -118.84823 | 16224 ft | 350 kts | 274° |
| 2026-05-07 16:12 | 33.91818 | -118.87775 | 17177 ft | 356 kts | 275° |
| 2026-05-07 16:12 | 33.91920 | -118.90776 | 18112 ft | 362 kts | 275° |
| 2026-05-07 16:12 | 33.92025 | -118.93824 | 18952 ft | 367 kts | 275° |
| 2026-05-07 16:12 | 33.92111 | -118.96907 | 19794 ft | 371 kts | 275° |
| 2026-05-07 16:13 | 33.92350 | -119.00007 | 20615 ft | 371 kts | 285° |
| 2026-05-07 16:13 | 33.93115 | -119.02972 | 21406 ft | 371 kts | 295° |
| 2026-05-07 16:13 | 33.93870 | -119.04822 | 21915 ft | 371 kts | 303° |
| 2026-05-07 16:13 | 33.95274 | -119.07447 | 22667 ft | 374 kts | 306° |
| 2026-05-07 16:14 | 33.96678 | -119.10114 | 23424 ft | 379 kts | 304° |
| 2026-05-07 16:14 | 33.98019 | -119.12867 | 24104 ft | 383 kts | 303° |
| 2026-05-07 16:14 | 33.99394 | -119.15634 | 24781 ft | 385 kts | 304° |
| 2026-05-07 16:14 | 34.01006 | -119.18205 | 25424 ft | 385 kts | 316° |
| 2026-05-07 16:15 | 34.02984 | -119.20386 | 26057 ft | 386 kts | 324° |
| 2026-05-07 16:15 | 34.05159 | -119.22232 | 26658 ft | 388 kts | 328° |
| 2026-05-07 16:15 | 34.07413 | -119.24057 | 27263 ft | 392 kts | 328° |
| 2026-05-07 16:15 | 34.09642 | -119.25979 | 27855 ft | 396 kts | 326° |
| 2026-05-07 16:16 | 34.11872 | -119.28000 | 28088 ft | 409 kts | 325° |
| 2026-05-07 16:16 | 34.14218 | -119.30072 | 28101 ft | 426 kts | 327° |
| 2026-05-07 16:16 | 34.16708 | -119.32160 | 28102 ft | 443 kts | 328° |
| 2026-05-07 16:16 | 34.19298 | -119.34310 | 28103 ft | 459 kts | 327° |
| 2026-05-07 16:17 | 34.21898 | -119.36554 | 28100 ft | 460 kts | 326° |
| 2026-05-07 16:17 | 34.27080 | -119.41167 | 28098 ft | 462 kts | 326° |
| 2026-05-07 16:18 | 34.32361 | -119.45616 | 28099 ft | 463 kts | 327° |
| 2026-05-07 16:18 | 34.37606 | -119.50208 | 28094 ft | 465 kts | 326° |
| 2026-05-07 16:19 | 34.42798 | -119.54837 | 28096 ft | 467 kts | 325° |
| 2026-05-07 16:19 | 34.47927 | -119.59627 | 28092 ft | 468 kts | 323° |
| 2026-05-07 16:20 | 34.53032 | -119.64536 | 28099 ft | 468 kts | 324° |
| 2026-05-07 16:20 | 34.58226 | -119.69327 | 28098 ft | 469 kts | 324° |
| 2026-05-07 16:21 | 34.63354 | -119.74256 | 28100 ft | 470 kts | 323° |
| 2026-05-07 16:21 | 34.68524 | -119.79145 | 28114 ft | 470 kts | 325° |
| 2026-05-07 16:22 | 34.73689 | -119.83984 | 28113 ft | 471 kts | 324° |
| 2026-05-07 16:22 | 34.78829 | -119.88971 | 28118 ft | 472 kts | 324° |
| 2026-05-07 16:23 | 34.84009 | -119.93812 | 28114 ft | 472 kts | 324° |
| 2026-05-07 16:23 | 34.89175 | -119.98774 | 28114 ft | 472 kts | 323° |
| 2026-05-07 16:24 | 34.94332 | -120.03735 | 28110 ft | 472 kts | 325° |
| 2026-05-07 16:24 | 34.99496 | -120.08588 | 28117 ft | 472 kts | 324° |
| 2026-05-07 16:25 | 35.04621 | -120.13595 | 28120 ft | 471 kts | 324° |
| 2026-05-07 16:25 | 35.09800 | -120.18510 | 28123 ft | 472 kts | 325° |
| 2026-05-07 16:26 | 35.14965 | -120.23466 | 28128 ft | 472 kts | 323° |
| 2026-05-07 16:26 | 35.20154 | -120.28380 | 28130 ft | 470 kts | 326° |
| 2026-05-07 16:27 | 35.25425 | -120.33093 | 28129 ft | 470 kts | 325° |
| 2026-05-07 16:27 | 35.30627 | -120.37968 | 28129 ft | 470 kts | 325° |
| 2026-05-07 16:28 | 35.35885 | -120.42732 | 28128 ft | 469 kts | 326° |
| 2026-05-07 16:28 | 35.41120 | -120.47520 | 28131 ft | 470 kts | 324° |
| 2026-05-07 16:29 | 35.46315 | -120.52390 | 28169 ft | 469 kts | 326° |
| 2026-05-07 16:29 | 35.51572 | -120.57124 | 28184 ft | 469 kts | 326° |
| 2026-05-07 16:30 | 35.56791 | -120.61851 | 28186 ft | 469 kts | 326° |
| 2026-05-07 16:30 | 35.62096 | -120.66518 | 28193 ft | 468 kts | 327° |
| 2026-05-07 16:31 | 35.67412 | -120.71194 | 28189 ft | 469 kts | 326° |
| 2026-05-07 16:31 | 35.72677 | -120.75933 | 28186 ft | 469 kts | 326° |
| 2026-05-07 16:32 | 35.77992 | -120.80579 | 28180 ft | 468 kts | 327° |
| 2026-05-07 16:32 | 35.83265 | -120.85310 | 28179 ft | 469 kts | 326° |
| 2026-05-07 16:33 | 35.88509 | -120.90001 | 28172 ft | 469 kts | 327° |
| 2026-05-07 16:33 | 35.93823 | -120.94676 | 28171 ft | 469 kts | 326° |
| 2026-05-07 16:34 | 35.99072 | -120.99456 | 28163 ft | 469 kts | 326° |
| 2026-05-07 16:34 | 36.04379 | -121.04151 | 28169 ft | 469 kts | 327° |
| 2026-05-07 16:35 | 36.09666 | -121.08895 | 28165 ft | 469 kts | 326° |
| 2026-05-07 16:35 | 36.14903 | -121.13661 | 28166 ft | 470 kts | 326° |
| 2026-05-07 16:36 | 36.20223 | -121.18362 | 28165 ft | 470 kts | 326° |
| 2026-05-07 16:36 | 36.25487 | -121.23182 | 28169 ft | 470 kts | 326° |
| 2026-05-07 16:37 | 36.30785 | -121.27949 | 28165 ft | 470 kts | 327° |
| 2026-05-07 16:37 | 36.36057 | -121.32673 | 28169 ft | 470 kts | 326° |
| 2026-05-07 16:38 | 36.41314 | -121.37527 | 28168 ft | 470 kts | 326° |
| 2026-05-07 16:38 | 36.46639 | -121.42278 | 28166 ft | 470 kts | 326° |
| 2026-05-07 16:39 | 36.51908 | -121.47108 | 28163 ft | 470 kts | 325° |
| 2026-05-07 16:39 | 36.57144 | -121.51907 | 28159 ft | 470 kts | 326° |
| 2026-05-07 16:40 | 36.62526 | -121.56549 | 28150 ft | 468 kts | 332° |
| 2026-05-07 16:40 | 36.68567 | -121.59426 | 28148 ft | 464 kts | 348° |
| 2026-05-07 16:41 | 36.74966 | -121.60078 | 28150 ft | 462 kts | 2° |
| 2026-05-07 16:41 | 36.81346 | -121.59819 | 28161 ft | 462 kts | 2° |
| 2026-05-07 16:42 | 36.87782 | -121.59768 | 28177 ft | 462 kts | 1° |
| 2026-05-07 16:42 | 36.94205 | -121.59508 | 28181 ft | 462 kts | 3° |
| 2026-05-07 16:43 | 37.00642 | -121.59323 | 28172 ft | 462 kts | 1° |
| 2026-05-07 16:43 | 37.07078 | -121.59211 | 28167 ft | 462 kts | 2° |
| 2026-05-07 16:44 | 37.13521 | -121.58924 | 28166 ft | 463 kts | 2° |
| 2026-05-07 16:44 | 37.19924 | -121.58826 | 28176 ft | 463 kts | 1° |
| 2026-05-07 16:45 | 37.26366 | -121.58610 | 28182 ft | 463 kts | 3° |
| 2026-05-07 16:45 | 37.32809 | -121.58392 | 28179 ft | 463 kts | 1° |
| 2026-05-07 16:46 | 37.39260 | -121.58284 | 28177 ft | 463 kts | 2° |
| 2026-05-07 16:46 | 37.45720 | -121.58012 | 28173 ft | 463 kts | 2° |
| 2026-05-07 16:47 | 37.52139 | -121.57881 | 28156 ft | 464 kts | 1° |
| 2026-05-07 16:47 | 37.58594 | -121.57695 | 28157 ft | 464 kts | 2° |
| 2026-05-07 16:48 | 37.65064 | -121.57455 | 28156 ft | 464 kts | 1° |
| 2026-05-07 16:48 | 37.71487 | -121.57346 | 28152 ft | 464 kts | 2° |
| 2026-05-07 16:49 | 37.77953 | -121.57091 | 28155 ft | 464 kts | 2° |
| 2026-05-07 16:49 | 37.84422 | -121.56929 | 28155 ft | 464 kts | 1° |
| 2026-05-07 16:50 | 37.90889 | -121.56765 | 28155 ft | 464 kts | 2° |
| 2026-05-07 16:50 | 37.97307 | -121.56513 | 28156 ft | 464 kts | 1° |
| 2026-05-07 16:51 | 38.03770 | -121.56396 | 28153 ft | 464 kts | 1° |
| 2026-05-07 16:51 | 38.10222 | -121.56159 | 28154 ft | 464 kts | 2° |
| 2026-05-07 16:52 | 38.16685 | -121.55971 | 28152 ft | 464 kts | 1° |
| 2026-05-07 16:52 | 38.23100 | -121.55826 | 28151 ft | 463 kts | 2° |
| 2026-05-07 16:53 | 38.29545 | -121.55567 | 28154 ft | 463 kts | 1° |
| 2026-05-07 16:53 | 38.36006 | -121.55437 | 28155 ft | 463 kts | 1° |
| 2026-05-07 16:54 | 38.42447 | -121.55221 | 28156 ft | 463 kts | 2° |
| 2026-05-07 16:54 | 38.48886 | -121.55502 | 28154 ft | 463 kts | 355° |
| 2026-05-07 16:55 | 38.55278 | -121.55658 | 28142 ft | 462 kts | 1° |
| 2026-05-07 16:55 | 38.61718 | -121.55828 | 28139 ft | 464 kts | 356° |
| 2026-05-07 16:56 | 38.68182 | -121.56380 | 28139 ft | 466 kts | 358° |
| 2026-05-07 16:56 | 38.77895 | -121.56569 | 28143 ft | 468 kts | 356° |
| 2026-05-07 16:57 | 38.84405 | -121.57084 | 28141 ft | 469 kts | 357° |
| 2026-05-07 16:57 | 38.90954 | -121.57210 | 28139 ft | 471 kts | 359° |
| 2026-05-07 16:58 | 38.97512 | -121.57556 | 28156 ft | 471 kts | 356° |
| 2026-05-07 16:58 | 39.04070 | -121.57940 | 28167 ft | 472 kts | 358° |
| 2026-05-07 16:59 | 39.10649 | -121.58081 | 28162 ft | 473 kts | 357° |
| 2026-05-07 16:59 | 39.17191 | -121.58528 | 28162 ft | 473 kts | 356° |
| 2026-05-07 17:00 | 39.23785 | -121.58767 | 28162 ft | 474 kts | 359° |
| 2026-05-07 17:00 | 39.30388 | -121.59025 | 28170 ft | 474 kts | 356° |
| 2026-05-07 17:01 | 39.35865 | -121.59400 | 28171 ft | 475 kts | 357° |
| 2026-05-07 17:01 | 39.43558 | -121.59622 | 28172 ft | 475 kts | 358° |
| 2026-05-07 17:02 | 39.49069 | -121.59924 | 28173 ft | 475 kts | 356° |
| 2026-05-07 17:02 | 39.55672 | -121.60298 | 28178 ft | 475 kts | 358° |
| 2026-05-07 17:03 | 39.62306 | -121.60483 | 28178 ft | 476 kts | 357° |
| 2026-05-07 17:03 | 39.68883 | -121.60899 | 28170 ft | 476 kts | 356° |
| 2026-05-07 17:04 | 39.75519 | -121.61166 | 28181 ft | 476 kts | 358° |
| 2026-05-07 17:04 | 39.82150 | -121.61429 | 28176 ft | 476 kts | 356° |
| 2026-05-07 17:05 | 39.88703 | -121.61843 | 28175 ft | 476 kts | 357° |
| 2026-05-07 17:05 | 39.95290 | -121.62044 | 28174 ft | 476 kts | 358° |
| 2026-05-07 17:06 | 40.01914 | -121.62404 | 28174 ft | 476 kts | 356° |
| 2026-05-07 17:06 | 40.08548 | -121.62748 | 28165 ft | 477 kts | 358° |
| 2026-05-07 17:07 | 40.15178 | -121.62966 | 28157 ft | 476 kts | 356° |
| 2026-05-07 17:07 | 40.21803 | -121.63384 | 28153 ft | 476 kts | 356° |
| 2026-05-07 17:08 | 40.28444 | -121.63639 | 28149 ft | 476 kts | 358° |
| 2026-05-07 17:08 | 40.35027 | -121.63931 | 28150 ft | 476 kts | 356° |
| 2026-05-07 17:09 | 40.41657 | -121.64333 | 28149 ft | 476 kts | 357° |
| 2026-05-07 17:09 | 40.48292 | -121.64544 | 28145 ft | 476 kts | 357° |
| 2026-05-07 17:10 | 40.54868 | -121.64923 | 28142 ft | 476 kts | 356° |
| 2026-05-07 17:10 | 40.61491 | -121.65250 | 28134 ft | 476 kts | 358° |
| 2026-05-07 17:11 | 40.68115 | -121.65487 | 28138 ft | 476 kts | 356° |
| 2026-05-07 17:11 | 40.74702 | -121.65906 | 28135 ft | 476 kts | 356° |
| 2026-05-07 17:12 | 40.81349 | -121.66156 | 28129 ft | 477 kts | 357° |
| 2026-05-07 17:12 | 40.87983 | -121.66472 | 28125 ft | 477 kts | 356° |
| 2026-05-07 17:13 | 40.94615 | -121.66867 | 28128 ft | 477 kts | 357° |
| 2026-05-07 17:13 | 41.01201 | -121.67080 | 28129 ft | 476 kts | 357° |
| 2026-05-07 17:14 | 41.07834 | -121.67478 | 28131 ft | 476 kts | 356° |
| 2026-05-07 17:14 | 41.14467 | -121.67795 | 28136 ft | 476 kts | 357° |
| 2026-05-07 17:15 | 41.21092 | -121.68048 | 28138 ft | 476 kts | 356° |
| 2026-05-07 17:15 | 41.27662 | -121.68472 | 28142 ft | 475 kts | 356° |
| 2026-05-07 17:16 | 41.34295 | -121.68716 | 28144 ft | 476 kts | 357° |
| 2026-05-07 17:16 | 41.40913 | -121.69051 | 28139 ft | 475 kts | 355° |
| 2026-05-07 17:17 | 41.47481 | -121.69437 | 28134 ft | 475 kts | 356° |
| 2026-05-07 17:17 | 41.54102 | -121.69659 | 28127 ft | 475 kts | 356° |
| 2026-05-07 17:18 | 41.60713 | -121.70068 | 28128 ft | 475 kts | 355° |
| 2026-05-07 17:18 | 41.67342 | -121.70379 | 28118 ft | 476 kts | 357° |
| 2026-05-07 17:19 | 41.73965 | -121.70645 | 28118 ft | 476 kts | 355° |
| 2026-05-07 17:19 | 41.80540 | -121.71075 | 28114 ft | 476 kts | 356° |
| 2026-05-07 17:20 | 41.87159 | -121.71316 | 28136 ft | 476 kts | 356° |
| 2026-05-07 17:20 | 41.93779 | -121.71665 | 28153 ft | 475 kts | 355° |
| 2026-05-07 17:21 | 42.00389 | -121.72054 | 28178 ft | 475 kts | 356° |
| 2026-05-07 17:21 | 42.07015 | -121.72280 | 28203 ft | 475 kts | 356° |
| 2026-05-07 17:22 | 42.13590 | -121.72700 | 28201 ft | 475 kts | 355° |
| 2026-05-07 17:22 | 42.20190 | -121.73199 | 28202 ft | 475 kts | 354° |
| 2026-05-07 17:23 | 42.26780 | -121.73924 | 28194 ft | 474 kts | 353° |
| 2026-05-07 17:23 | 42.33368 | -121.74602 | 28167 ft | 475 kts | 354° |
| 2026-05-07 17:24 | 42.39922 | -121.75186 | 28140 ft | 475 kts | 353° |
| 2026-05-07 17:24 | 42.46529 | -121.75958 | 28118 ft | 475 kts | 353° |
| 2026-05-07 17:25 | 42.53131 | -121.76569 | 28098 ft | 475 kts | 354° |
| 2026-05-07 17:25 | 42.59700 | -121.77221 | 28091 ft | 475 kts | 353° |
| 2026-05-07 17:26 | 42.66294 | -121.77984 | 28092 ft | 475 kts | 353° |
| 2026-05-07 17:26 | 42.72893 | -121.78551 | 28091 ft | 475 kts | 354° |
| 2026-05-07 17:27 | 42.79482 | -121.79291 | 28094 ft | 474 kts | 352° |
| 2026-05-07 17:27 | 42.86029 | -121.79986 | 28099 ft | 475 kts | 354° |
| 2026-05-07 17:28 | 42.92624 | -121.80572 | 28097 ft | 474 kts | 353° |
| 2026-05-07 17:28 | 42.99195 | -121.81361 | 28095 ft | 474 kts | 352° |
| 2026-05-07 17:29 | 43.05789 | -121.81980 | 28096 ft | 474 kts | 354° |
| 2026-05-07 17:29 | 43.12363 | -121.82642 | 28101 ft | 473 kts | 352° |
| 2026-05-07 17:30 | 43.18876 | -121.83411 | 28098 ft | 472 kts | 353° |
| 2026-05-07 17:30 | 43.25450 | -121.83986 | 28098 ft | 472 kts | 353° |
| 2026-05-07 17:31 | 43.31991 | -121.84733 | 28096 ft | 472 kts | 352° |
| 2026-05-07 17:31 | 43.38546 | -121.85439 | 28098 ft | 472 kts | 353° |
| 2026-05-07 17:32 | 43.45106 | -121.86034 | 28099 ft | 472 kts | 352° |
| 2026-05-07 17:32 | 43.50546 | -121.86700 | 28103 ft | 471 kts | 352° |
| 2026-05-07 17:33 | 43.58161 | -121.87456 | 28103 ft | 472 kts | 353° |
| 2026-05-07 17:33 | 43.64715 | -121.88127 | 28102 ft | 471 kts | 352° |
| 2026-05-07 17:34 | 43.71249 | -121.88910 | 28106 ft | 471 kts | 353° |
| 2026-05-07 17:34 | 43.77793 | -121.89492 | 28105 ft | 471 kts | 353° |
| 2026-05-07 17:35 | 43.84274 | -121.90249 | 28110 ft | 470 kts | 352° |
| 2026-05-07 17:35 | 43.90806 | -121.90960 | 28109 ft | 470 kts | 353° |
| 2026-05-07 17:36 | 43.97334 | -121.91567 | 28116 ft | 470 kts | 352° |
| 2026-05-07 17:36 | 44.03847 | -121.92376 | 28115 ft | 470 kts | 352° |
| 2026-05-07 17:37 | 44.10391 | -121.93006 | 28121 ft | 470 kts | 353° |
| 2026-05-07 17:37 | 44.16875 | -121.93692 | 28123 ft | 470 kts | 352° |
| 2026-05-07 17:38 | 44.23398 | -121.94480 | 28123 ft | 470 kts | 353° |
| 2026-05-07 17:38 | 44.29952 | -121.95076 | 28125 ft | 471 kts | 353° |
| 2026-05-07 17:39 | 44.36438 | -121.95851 | 28129 ft | 471 kts | 352° |
| 2026-05-07 17:39 | 44.42987 | -121.96567 | 28126 ft | 472 kts | 353° |
| 2026-05-07 17:40 | 44.49543 | -121.97197 | 28125 ft | 471 kts | 352° |
| 2026-05-07 17:40 | 44.56085 | -121.98020 | 28131 ft | 472 kts | 352° |
| 2026-05-07 17:41 | 44.62616 | -121.98659 | 28135 ft | 472 kts | 353° |
| 2026-05-07 17:41 | 44.69173 | -121.99369 | 28136 ft | 471 kts | 352° |
| 2026-05-07 17:42 | 44.75706 | -122.00168 | 28144 ft | 471 kts | 353° |
| 2026-05-07 17:42 | 44.82214 | -122.00773 | 28146 ft | 471 kts | 353° |
| 2026-05-07 17:43 | 44.88743 | -122.01565 | 28152 ft | 470 kts | 352° |
| 2026-05-07 17:43 | 44.95275 | -122.02293 | 28151 ft | 470 kts | 354° |
| 2026-05-07 17:44 | 45.01799 | -122.02930 | 28157 ft | 470 kts | 353° |
| 2026-05-07 17:44 | 45.08310 | -122.03765 | 28161 ft | 469 kts | 352° |
| 2026-05-07 17:45 | 45.14794 | -122.04410 | 28158 ft | 469 kts | 353° |
| 2026-05-07 17:45 | 45.21318 | -122.05131 | 28161 ft | 468 kts | 352° |
| 2026-05-07 17:46 | 45.27811 | -122.05939 | 28160 ft | 468 kts | 353° |
| 2026-05-07 17:46 | 45.34289 | -122.06551 | 28186 ft | 468 kts | 353° |
| 2026-05-07 17:47 | 45.40783 | -122.07357 | 28194 ft | 467 kts | 352° |
| 2026-05-07 17:47 | 45.47269 | -122.08088 | 28197 ft | 468 kts | 353° |
| 2026-05-07 17:48 | 45.53758 | -122.08739 | 28211 ft | 467 kts | 352° |
| 2026-05-07 17:48 | 45.60239 | -122.09583 | 28209 ft | 467 kts | 352° |
| 2026-05-07 17:49 | 45.66673 | -122.10233 | 28202 ft | 466 kts | 353° |
| 2026-05-07 17:49 | 45.73144 | -122.10967 | 28196 ft | 466 kts | 352° |
| 2026-05-07 17:50 | 45.79607 | -122.11779 | 28192 ft | 466 kts | 353° |
| 2026-05-07 17:50 | 45.84994 | -122.12296 | 28187 ft | 466 kts | 353° |
| 2026-05-07 17:51 | 45.91453 | -122.13079 | 28183 ft | 465 kts | 351° |
| 2026-05-07 17:51 | 45.98840 | -122.13944 | 28181 ft | 466 kts | 353° |
| 2026-05-07 17:52 | 46.04257 | -122.14486 | 28180 ft | 465 kts | 352° |
| 2026-05-07 17:52 | 46.10696 | -122.15327 | 28180 ft | 464 kts | 352° |
| 2026-05-07 17:53 | 46.17148 | -122.16023 | 28181 ft | 465 kts | 353° |
| 2026-05-07 17:53 | 46.23593 | -122.16738 | 28177 ft | 464 kts | 352° |
| 2026-05-07 17:54 | 46.29990 | -122.17568 | 28181 ft | 464 kts | 352° |
| 2026-05-07 17:54 | 46.36440 | -122.18216 | 28182 ft | 464 kts | 353° |
| 2026-05-07 17:55 | 46.42871 | -122.19022 | 28184 ft | 463 kts | 351° |
| 2026-05-07 17:55 | 46.49302 | -122.19790 | 28184 ft | 464 kts | 353° |
| 2026-05-07 17:56 | 46.55744 | -122.20461 | 28186 ft | 463 kts | 352° |
| 2026-05-07 17:56 | 46.62167 | -122.21314 | 28188 ft | 463 kts | 352° |
| 2026-05-07 17:57 | 46.67513 | -122.21900 | 28191 ft | 464 kts | 353° |
| 2026-05-07 17:57 | 46.74993 | -122.22752 | 28196 ft | 463 kts | 351° |
| 2026-05-07 17:58 | 46.81426 | -122.23584 | 28201 ft | 464 kts | 352° |
| 2026-05-07 17:58 | 46.87873 | -122.24248 | 28211 ft | 464 kts | 352° |
| 2026-05-07 17:59 | 46.94269 | -122.25077 | 28210 ft | 464 kts | 351° |
| 2026-05-07 17:59 | 47.00715 | -122.25841 | 28209 ft | 465 kts | 353° |
| 2026-05-07 18:00 | 47.07134 | -122.26539 | 28207 ft | 464 kts | 352° |
| 2026-05-07 18:00 | 47.13570 | -122.27407 | 28216 ft | 464 kts | 352° |
| 2026-05-07 18:01 | 47.20026 | -122.28104 | 28214 ft | 465 kts | 353° |
| 2026-05-07 18:01 | 47.26474 | -122.28890 | 28211 ft | 464 kts | 351° |
| 2026-05-07 18:02 | 47.36107 | -122.30055 | 28212 ft | 465 kts | 353° |
| 2026-05-07 18:03 | 47.42567 | -122.30809 | 28214 ft | 465 kts | 352° |
| 2026-05-07 18:03 | 47.49069 | -122.30432 | 28207 ft | 469 kts | 0° |
| 2026-05-07 18:04 | 47.55534 | -122.30258 | 28207 ft | 467 kts | 356° |
| 2026-05-07 18:04 | 47.62032 | -122.29820 | 28210 ft | 469 kts | 1° |
| 2026-05-07 18:05 | 47.68554 | -122.29182 | 28209 ft | 467 kts | 358° |
| 2026-05-07 18:05 | 47.75062 | -122.29037 | 28208 ft | 468 kts | 358° |
| 2026-05-07 18:06 | 47.81581 | -122.28400 | 28212 ft | 469 kts | 0° |
| 2026-05-07 18:06 | 47.88048 | -122.28011 | 28202 ft | 467 kts | 357° |
| 2026-05-07 18:06 | 47.91320 | -122.27979 | 27692 ft | 467 kts | 355° |
| 2026-05-07 18:07 | 47.94443 | -122.28559 | 27606 ft | 438 kts | 346° |
| 2026-05-07 18:07 | 47.97362 | -122.29415 | 27596 ft | 414 kts | 346° |
| 2026-05-07 18:07 | 48.00122 | -122.30158 | 27590 ft | 394 kts | 347° |
| 2026-05-07 18:07 | 48.02775 | -122.30837 | 27588 ft | 381 kts | 346° |
| 2026-05-07 18:08 | 48.05378 | -122.31588 | 27062 ft | 383 kts | 345° |
| 2026-05-07 18:08 | 48.07978 | -122.32414 | 26222 ft | 379 kts | 345° |
| 2026-05-07 18:08 | 48.10555 | -122.33203 | 25405 ft | 377 kts | 346° |
| 2026-05-07 18:08 | 48.13125 | -122.33915 | 24575 ft | 374 kts | 347° |
| 2026-05-07 18:09 | 48.15663 | -122.34603 | 23673 ft | 375 kts | 347° |
| 2026-05-07 18:09 | 48.18214 | -122.35347 | 22824 ft | 371 kts | 346° |
| 2026-05-07 18:09 | 48.20721 | -122.36113 | 22072 ft | 364 kts | 346° |
| 2026-05-07 18:09 | 48.23184 | -122.36845 | 21488 ft | 358 kts | 347° |
| 2026-05-07 18:10 | 48.25632 | -122.37539 | 21017 ft | 359 kts | 348° |
| 2026-05-07 18:10 | 48.28106 | -122.38241 | 20536 ft | 362 kts | 347° |
| 2026-05-07 18:10 | 48.30584 | -122.38973 | 20059 ft | 364 kts | 347° |
| 2026-05-07 18:10 | 48.33077 | -122.39724 | 19582 ft | 367 kts | 347° |
| 2026-05-07 18:11 | 48.35589 | -122.40464 | 19103 ft | 369 kts | 348° |
| 2026-05-07 18:11 | 48.37266 | -122.40948 | 18778 ft | 371 kts | 348° |
| 2026-05-07 18:11 | 48.40637 | -122.41920 | 18064 ft | 373 kts | 348° |
| 2026-05-07 18:11 | 48.43207 | -122.42681 | 17411 ft | 378 kts | 348° |
| 2026-05-07 18:12 | 48.45783 | -122.43454 | 16903 ft | 376 kts | 348° |
| 2026-05-07 18:12 | 48.48351 | -122.44206 | 16410 ft | 375 kts | 348° |
| 2026-05-07 18:12 | 48.50913 | -122.44943 | 15914 ft | 374 kts | 348° |
| 2026-05-07 18:12 | 48.53469 | -122.45693 | 15420 ft | 372 kts | 348° |
| 2026-05-07 18:13 | 48.55998 | -122.46454 | 14941 ft | 369 kts | 348° |
| 2026-05-07 18:13 | 48.58505 | -122.47205 | 14474 ft | 366 kts | 348° |
| 2026-05-07 18:13 | 48.60994 | -122.47933 | 14007 ft | 363 kts | 348° |
| 2026-05-07 18:13 | 48.63472 | -122.48651 | 13480 ft | 361 kts | 348° |
| 2026-05-07 18:14 | 48.65930 | -122.49381 | 12977 ft | 359 kts | 348° |
| 2026-05-07 18:14 | 48.68369 | -122.50121 | 12496 ft | 357 kts | 348° |
| 2026-05-07 18:14 | 48.70799 | -122.50872 | 12032 ft | 355 kts | 347° |
| 2026-05-07 18:14 | 48.73080 | -122.52105 | 11626 ft | 352 kts | 336° |
| 2026-05-07 18:15 | 48.75289 | -122.53661 | 11235 ft | 349 kts | 336° |
| 2026-05-07 18:15 | 48.77530 | -122.55034 | 10833 ft | 345 kts | 340° |
| 2026-05-07 18:15 | 48.79717 | -122.56264 | 10453 ft | 315 kts | 340° |
| 2026-05-07 18:15 | 48.81602 | -122.57422 | 10118 ft | 285 kts | 337° |
| 2026-05-07 18:16 | 48.83400 | -122.58632 | 9779 ft | 281 kts | 336° |
| 2026-05-07 18:16 | 48.85181 | -122.59816 | 9457 ft | 276 kts | 338° |
| 2026-05-07 18:16 | 48.86941 | -122.60915 | 9163 ft | 270 kts | 339° |
| 2026-05-07 18:16 | 48.88670 | -122.61967 | 8851 ft | 265 kts | 339° |
| 2026-05-07 18:17 | 48.90367 | -122.63030 | 8555 ft | 262 kts | 338° |
| 2026-05-07 18:17 | 48.92035 | -122.64107 | 8263 ft | 258 kts | 338° |
| 2026-05-07 18:17 | 48.93682 | -122.65166 | 7973 ft | 255 kts | 338° |
| 2026-05-07 18:17 | 48.95317 | -122.66197 | 7693 ft | 254 kts | 339° |
| 2026-05-07 18:18 | 48.96959 | -122.67224 | 7404 ft | 255 kts | 339° |
| 2026-05-07 18:18 | 48.98600 | -122.68265 | 7113 ft | 256 kts | 339° |
| 2026-05-07 18:18 | 49.00216 | -122.69302 | 6826 ft | 254 kts | 339° |
| 2026-05-07 18:18 | 49.01838 | -122.70340 | 6537 ft | 252 kts | 339° |
| 2026-05-07 18:19 | 49.03450 | -122.71361 | 6241 ft | 251 kts | 339° |
| 2026-05-07 18:19 | 49.05057 | -122.72375 | 5957 ft | 249 kts | 339° |
| 2026-05-07 18:19 | 49.06653 | -122.73395 | 5672 ft | 248 kts | 338° |
| 2026-05-07 18:19 | 49.08245 | -122.74415 | 5392 ft | 247 kts | 338° |
| 2026-05-07 18:20 | 49.09826 | -122.75424 | 5112 ft | 245 kts | 338° |
| 2026-05-07 18:20 | 49.11314 | -122.76373 | 4841 ft | 217 kts | 338° |
| 2026-05-07 18:20 | 49.12684 | -122.77357 | 4590 ft | 219 kts | 327° |
| 2026-05-07 18:20 | 49.13737 | -122.78988 | 4351 ft | 220 kts | 306° |
| 2026-05-07 18:21 | 49.14419 | -122.81078 | 4103 ft | 222 kts | 285° |
| 2026-05-07 18:21 | 49.14653 | -122.83409 | 3868 ft | 222 kts | 276° |
| 2026-05-07 18:21 | 49.14881 | -122.85752 | 3620 ft | 223 kts | 282° |
| 2026-05-07 18:21 | 49.15230 | -122.88064 | 3367 ft | 224 kts | 283° |
| 2026-05-07 18:22 | 49.15544 | -122.90394 | 3110 ft | 224 kts | 280° |
| 2026-05-07 18:22 | 49.15724 | -122.91948 | 2943 ft | 224 kts | 280° |
| 2026-05-07 18:22 | 49.16082 | -122.95095 | 2606 ft | 224 kts | 280° |
| 2026-05-07 18:22 | 49.16347 | -122.97440 | 2382 ft | 223 kts | 279° |
| 2026-05-07 18:23 | 49.16607 | -122.99779 | 2105 ft | 221 kts | 279° |
| 2026-05-07 18:23 | 49.16844 | -123.01934 | 1889 ft | 196 kts | 279° |
| 2026-05-07 18:23 | 49.17068 | -123.03899 | 1659 ft | 179 kts | 280° |
| 2026-05-07 18:23 | 49.17284 | -123.05707 | 1416 ft | 167 kts | 280° |
| 2026-05-07 18:24 | 49.17483 | -123.07417 | 1190 ft | 160 kts | 279° |
| 2026-05-07 18:24 | 49.17669 | -123.09060 | 959 ft | 154 kts | 280° |
| 2026-05-07 18:24 | 49.17852 | -123.10672 | 740 ft | 154 kts | 280° |
| 2026-05-07 18:24 | 49.18035 | -123.12275 | 529 ft | 153 kts | 281° |
| 2026-05-07 18:25 | 49.18222 | -123.13876 | 322 ft | 153 kts | 280° |
| 2026-05-07 18:25 | 49.18401 | -123.15457 | 94 ft | 148 kts | 280° |
| 2026-05-07 18:25 | 49.18573 | -123.16921 | 14 ft | 133 kts | 280° |
| 2026-05-07 18:25 | 49.18699 | -123.17993 | 11 ft | 38 kts | 271° |
| 2026-05-07 18:26 | 49.18613 | -123.18165 | 11 ft | 14 kts | 188° |
| 2026-05-07 18:26 | 49.18516 | -123.18130 | 10 ft | 17 kts | 113° |
| 2026-05-07 18:26 | 49.18509 | -123.18086 | 11 ft | 0 kts | 102° |
| 2026-05-07 18:26 | 49.18507 | -123.18068 | 11 ft | 10 kts | 102° |
| 2026-05-07 18:27 | 49.18486 | -123.17894 | 11 ft | 19 kts | 98° |
| 2026-05-07 18:27 | 49.18463 | -123.17682 | 11 ft | 22 kts | 99° |
| 2026-05-07 18:27 | 49.18407 | -123.17630 | 11 ft | 13 kts | 227° |
| 2026-05-07 18:27 | 49.18394 | -123.17704 | 11 ft | 0 kts | 277° |